sensor_id;sensor_type;location;lat;lon;timestamp;temperature;humidity
32293;DHT22;43233;48.608;8.838;2023-05-07T00:01:14;12.90;72.10
32293;DHT22;43233;48.608;8.838;2023-05-07T00:03:40;12.90;72.50
32293;DHT22;43233;48.608;8.838;2023-05-07T00:06:05;12.90;72.50
32293;DHT22;43233;48.608;8.838;2023-05-07T00:08:31;12.90;73.00
32293;DHT22;43233;48.608;8.838;2023-05-07T00:10:57;12.80;73.30
32293;DHT22;43233;48.608;8.838;2023-05-07T00:13:22;12.80;73.50
32293;DHT22;43233;48.608;8.838;2023-05-07T00:15:48;12.90;73.60
32293;DHT22;43233;48.608;8.838;2023-05-07T00:18:13;12.80;73.50
32293;DHT22;43233;48.608;8.838;2023-05-07T00:20:39;12.80;73.60
32293;DHT22;43233;48.608;8.838;2023-05-07T00:23:05;12.80;74.00
32293;DHT22;43233;48.608;8.838;2023-05-07T00:25:30;12.70;74.80
32293;DHT22;43233;48.608;8.838;2023-05-07T00:27:56;12.60;75.10
32293;DHT22;43233;48.608;8.838;2023-05-07T00:30:27;12.60;75.10
32293;DHT22;43233;48.608;8.838;2023-05-07T00:32:53;12.70;75.00
32293;DHT22;43233;48.608;8.838;2023-05-07T00:35:19;12.70;74.90
32293;DHT22;43233;48.608;8.838;2023-05-07T00:37:45;12.80;74.20
32293;DHT22;43233;48.608;8.838;2023-05-07T00:40:10;12.90;73.60
32293;DHT22;43233;48.608;8.838;2023-05-07T00:42:36;13.00;73.30
32293;DHT22;43233;48.608;8.838;2023-05-07T00:45:02;12.90;73.90
32293;DHT22;43233;48.608;8.838;2023-05-07T00:47:28;12.80;75.00
32293;DHT22;43233;48.608;8.838;2023-05-07T00:49:54;12.70;75.50
32293;DHT22;43233;48.608;8.838;2023-05-07T00:52:20;12.80;75.10
32293;DHT22;43233;48.608;8.838;2023-05-07T00:54:47;12.80;75.70
32293;DHT22;43233;48.608;8.838;2023-05-07T00:57:13;12.70;76.40
32293;DHT22;43233;48.608;8.838;2023-05-07T00:59:41;12.70;76.50
32293;DHT22;43233;48.608;8.838;2023-05-07T01:02:07;12.70;76.60
32293;DHT22;43233;48.608;8.838;2023-05-07T01:04:33;12.70;76.50
32293;DHT22;43233;48.608;8.838;2023-05-07T01:06:59;12.70;76.60
32293;DHT22;43233;48.608;8.838;2023-05-07T01:09:26;12.70;76.70
32293;DHT22;43233;48.608;8.838;2023-05-07T01:11:53;12.70;77.40
32293;DHT22;43233;48.608;8.838;2023-05-07T01:14:20;12.60;78.20
32293;DHT22;43233;48.608;8.838;2023-05-07T01:16:46;12.50;79.00
32293;DHT22;43233;48.608;8.838;2023-05-07T01:19:12;12.50;79.00
32293;DHT22;43233;48.608;8.838;2023-05-07T01:21:45;12.50;78.80
32293;DHT22;43233;48.608;8.838;2023-05-07T01:24:11;12.50;78.60
32293;DHT22;43233;48.608;8.838;2023-05-07T01:26:38;12.50;79.00
32293;DHT22;43233;48.608;8.838;2023-05-07T01:29:04;12.50;78.50
32293;DHT22;43233;48.608;8.838;2023-05-07T01:31:29;12.60;78.10
32293;DHT22;43233;48.608;8.838;2023-05-07T01:33:56;12.70;77.70
32293;DHT22;43233;48.608;8.838;2023-05-07T01:36:23;12.70;78.00
32293;DHT22;43233;48.608;8.838;2023-05-07T01:38:52;12.50;79.70
32293;DHT22;43233;48.608;8.838;2023-05-07T01:41:19;12.30;80.90
32293;DHT22;43233;48.608;8.838;2023-05-07T01:43:46;12.20;81.90
32293;DHT22;43233;48.608;8.838;2023-05-07T01:46:12;12.00;83.10
32293;DHT22;43233;48.608;8.838;2023-05-07T01:48:38;11.90;83.80
32293;DHT22;43233;48.608;8.838;2023-05-07T01:51:05;11.80;84.30
32293;DHT22;43233;48.608;8.838;2023-05-07T01:53:40;11.80;85.00
32293;DHT22;43233;48.608;8.838;2023-05-07T01:56:06;11.70;85.60
32293;DHT22;43233;48.608;8.838;2023-05-07T01:58:32;11.70;86.40
32293;DHT22;43233;48.608;8.838;2023-05-07T02:00:58;11.70;86.70
32293;DHT22;43233;48.608;8.838;2023-05-07T02:03:24;11.60;86.90
32293;DHT22;43233;48.608;8.838;2023-05-07T02:05:49;11.50;87.50
32293;DHT22;43233;48.608;8.838;2023-05-07T02:08:15;11.50;87.90
32293;DHT22;43233;48.608;8.838;2023-05-07T02:10:41;11.50;88.00
32293;DHT22;43233;48.608;8.838;2023-05-07T02:13:06;11.50;88.00
32293;DHT22;43233;48.608;8.838;2023-05-07T02:15:32;11.40;88.40
32293;DHT22;43233;48.608;8.838;2023-05-07T02:18:05;11.40;88.40
32293;DHT22;43233;48.608;8.838;2023-05-07T02:20:40;11.40;88.20
32293;DHT22;43233;48.608;8.838;2023-05-07T02:23:05;11.40;87.80
32293;DHT22;43233;48.608;8.838;2023-05-07T02:25:31;11.40;88.10
32293;DHT22;43233;48.608;8.838;2023-05-07T02:27:56;11.30;88.30
32293;DHT22;43233;48.608;8.838;2023-05-07T02:30:22;11.40;88.00
32293;DHT22;43233;48.608;8.838;2023-05-07T02:32:49;11.40;88.10
32293;DHT22;43233;48.608;8.838;2023-05-07T02:35:15;11.40;87.90
32293;DHT22;43233;48.608;8.838;2023-05-07T02:37:40;11.40;87.90
32293;DHT22;43233;48.608;8.838;2023-05-07T02:40:06;11.40;88.40
32293;DHT22;43233;48.608;8.838;2023-05-07T02:42:32;11.30;88.90
32293;DHT22;43233;48.608;8.838;2023-05-07T02:44:58;11.20;89.30
32293;DHT22;43233;48.608;8.838;2023-05-07T02:47:23;11.20;89.50
32293;DHT22;43233;48.608;8.838;2023-05-07T02:49:49;11.10;89.50
32293;DHT22;43233;48.608;8.838;2023-05-07T02:52:15;11.10;89.20
32293;DHT22;43233;48.608;8.838;2023-05-07T02:54:40;11.20;88.80
32293;DHT22;43233;48.608;8.838;2023-05-07T02:57:06;11.30;88.10
32293;DHT22;43233;48.608;8.838;2023-05-07T02:59:31;11.30;88.20
32293;DHT22;43233;48.608;8.838;2023-05-07T03:01:57;11.20;88.60
32293;DHT22;43233;48.608;8.838;2023-05-07T03:04:23;11.20;88.90
32293;DHT22;43233;48.608;8.838;2023-05-07T03:06:48;11.10;89.30
32293;DHT22;43233;48.608;8.838;2023-05-07T03:09:14;11.00;89.30
32293;DHT22;43233;48.608;8.838;2023-05-07T03:11:40;11.00;88.90
32293;DHT22;43233;48.608;8.838;2023-05-07T03:14:05;10.90;89.00
32293;DHT22;43233;48.608;8.838;2023-05-07T03:16:31;11.00;89.00
32293;DHT22;43233;48.608;8.838;2023-05-07T03:18:57;11.00;88.40
32293;DHT22;43233;48.608;8.838;2023-05-07T03:21:22;11.00;88.40
32293;DHT22;43233;48.608;8.838;2023-05-07T03:23:48;11.00;88.40
32293;DHT22;43233;48.608;8.838;2023-05-07T03:26:13;11.00;88.30
32293;DHT22;43233;48.608;8.838;2023-05-07T03:28:39;11.10;87.60
32293;DHT22;43233;48.608;8.838;2023-05-07T03:31:04;11.20;86.50
32293;DHT22;43233;48.608;8.838;2023-05-07T03:33:33;11.20;85.20
32293;DHT22;43233;48.608;8.838;2023-05-07T03:35:59;11.20;85.90
32293;DHT22;43233;48.608;8.838;2023-05-07T03:38:24;11.10;86.50
32293;DHT22;43233;48.608;8.838;2023-05-07T03:40:50;11.10;86.90
32293;DHT22;43233;48.608;8.838;2023-05-07T03:43:16;11.00;87.50
32293;DHT22;43233;48.608;8.838;2023-05-07T03:45:42;10.90;87.80
32293;DHT22;43233;48.608;8.838;2023-05-07T03:48:07;11.00;87.70
32293;DHT22;43233;48.608;8.838;2023-05-07T03:50:33;11.00;87.10
32293;DHT22;43233;48.608;8.838;2023-05-07T03:52:58;11.10;86.50
32293;DHT22;43233;48.608;8.838;2023-05-07T03:55:24;11.10;86.30
32293;DHT22;43233;48.608;8.838;2023-05-07T03:57:50;11.00;87.10
32293;DHT22;43233;48.608;8.838;2023-05-07T04:00:16;11.10;86.90
32293;DHT22;43233;48.608;8.838;2023-05-07T04:02:42;11.10;87.00
32293;DHT22;43233;48.608;8.838;2023-05-07T04:05:07;11.00;86.60
32293;DHT22;43233;48.608;8.838;2023-05-07T04:07:33;10.90;87.50
32293;DHT22;43233;48.608;8.838;2023-05-07T04:09:59;10.80;87.80
32293;DHT22;43233;48.608;8.838;2023-05-07T04:12:24;10.70;88.60
32293;DHT22;43233;48.608;8.838;2023-05-07T04:14:50;10.70;88.50
32293;DHT22;43233;48.608;8.838;2023-05-07T04:17:16;10.70;88.80
32293;DHT22;43233;48.608;8.838;2023-05-07T04:19:41;10.80;88.70
32293;DHT22;43233;48.608;8.838;2023-05-07T04:22:11;10.80;88.70
32293;DHT22;43233;48.608;8.838;2023-05-07T04:24:37;10.80;88.60
32293;DHT22;43233;48.608;8.838;2023-05-07T04:27:02;10.80;88.90
32293;DHT22;43233;48.608;8.838;2023-05-07T04:29:28;10.80;88.90
32293;DHT22;43233;48.608;8.838;2023-05-07T04:31:54;10.80;89.00
32293;DHT22;43233;48.608;8.838;2023-05-07T04:34:21;10.80;89.10
32293;DHT22;43233;48.608;8.838;2023-05-07T04:36:47;10.70;90.30
32293;DHT22;43233;48.608;8.838;2023-05-07T04:39:13;10.70;89.90
32293;DHT22;43233;48.608;8.838;2023-05-07T04:41:42;10.70;89.60
32293;DHT22;43233;48.608;8.838;2023-05-07T04:44:07;10.80;89.10
32293;DHT22;43233;48.608;8.838;2023-05-07T04:46:34;10.90;89.20
32293;DHT22;43233;48.608;8.838;2023-05-07T04:49:00;10.80;90.00
32293;DHT22;43233;48.608;8.838;2023-05-07T04:51:25;10.90;90.30
32293;DHT22;43233;48.608;8.838;2023-05-07T04:53:51;11.00;89.90
32293;DHT22;43233;48.608;8.838;2023-05-07T04:56:17;11.00;90.00
32293;DHT22;43233;48.608;8.838;2023-05-07T04:58:43;11.00;90.40
32293;DHT22;43233;48.608;8.838;2023-05-07T05:01:08;11.10;90.60
32293;DHT22;43233;48.608;8.838;2023-05-07T05:03:34;11.10;90.30
32293;DHT22;43233;48.608;8.838;2023-05-07T05:06:00;11.30;90.10
32293;DHT22;43233;48.608;8.838;2023-05-07T05:08:25;11.30;89.70
32293;DHT22;43233;48.608;8.838;2023-05-07T05:10:51;11.40;89.50
32293;DHT22;43233;48.608;8.838;2023-05-07T05:13:17;11.50;89.80
32293;DHT22;43233;48.608;8.838;2023-05-07T05:15:43;11.50;90.40
32293;DHT22;43233;48.608;8.838;2023-05-07T05:18:09;11.60;90.30
32293;DHT22;43233;48.608;8.838;2023-05-07T05:20:35;11.70;90.30
32293;DHT22;43233;48.608;8.838;2023-05-07T05:23:00;11.80;91.10
32293;DHT22;43233;48.608;8.838;2023-05-07T05:25:26;11.90;91.90
32293;DHT22;43233;48.608;8.838;2023-05-07T05:27:52;12.10;91.50
32293;DHT22;43233;48.608;8.838;2023-05-07T05:30:18;12.20;90.90
32293;DHT22;43233;48.608;8.838;2023-05-07T05:32:44;12.30;89.90
32293;DHT22;43233;48.608;8.838;2023-05-07T05:35:10;12.50;89.70
32293;DHT22;43233;48.608;8.838;2023-05-07T05:37:35;12.60;88.70
32293;DHT22;43233;48.608;8.838;2023-05-07T05:40:01;12.70;87.90
32293;DHT22;43233;48.608;8.838;2023-05-07T05:42:27;12.90;86.50
32293;DHT22;43233;48.608;8.838;2023-05-07T05:44:53;13.00;86.20
32293;DHT22;43233;48.608;8.838;2023-05-07T05:47:18;13.10;85.50
32293;DHT22;43233;48.608;8.838;2023-05-07T05:49:44;13.20;84.40
32293;DHT22;43233;48.608;8.838;2023-05-07T05:52:11;13.40;83.10
32293;DHT22;43233;48.608;8.838;2023-05-07T05:54:38;13.40;83.40
32293;DHT22;43233;48.608;8.838;2023-05-07T05:57:04;13.60;84.10
32293;DHT22;43233;48.608;8.838;2023-05-07T05:59:30;13.70;83.40
32293;DHT22;43233;48.608;8.838;2023-05-07T06:01:55;13.80;83.90
32293;DHT22;43233;48.608;8.838;2023-05-07T06:04:21;13.90;83.80
32293;DHT22;43233;48.608;8.838;2023-05-07T06:06:47;13.90;83.70
32293;DHT22;43233;48.608;8.838;2023-05-07T06:09:12;14.00;83.20
32293;DHT22;43233;48.608;8.838;2023-05-07T06:11:38;14.00;83.00
32293;DHT22;43233;48.608;8.838;2023-05-07T06:14:05;14.10;82.70
32293;DHT22;43233;48.608;8.838;2023-05-07T06:16:30;14.20;82.10
32293;DHT22;43233;48.608;8.838;2023-05-07T06:18:56;14.20;81.70
32293;DHT22;43233;48.608;8.838;2023-05-07T06:21:21;14.30;81.50
32293;DHT22;43233;48.608;8.838;2023-05-07T06:23:47;14.30;81.00
32293;DHT22;43233;48.608;8.838;2023-05-07T06:26:13;14.40;80.20
32293;DHT22;43233;48.608;8.838;2023-05-07T06:28:39;14.40;79.50
32293;DHT22;43233;48.608;8.838;2023-05-07T06:31:15;14.40;79.30
32293;DHT22;43233;48.608;8.838;2023-05-07T06:33:41;14.50;78.60
32293;DHT22;43233;48.608;8.838;2023-05-07T06:36:07;14.60;78.50
32293;DHT22;43233;48.608;8.838;2023-05-07T06:38:32;14.70;77.80
32293;DHT22;43233;48.608;8.838;2023-05-07T06:40:58;14.80;75.80
32293;DHT22;43233;48.608;8.838;2023-05-07T06:43:23;14.80;75.00
32293;DHT22;43233;48.608;8.838;2023-05-07T06:45:49;14.80;75.30
32293;DHT22;43233;48.608;8.838;2023-05-07T06:48:15;14.80;76.00
32293;DHT22;43233;48.608;8.838;2023-05-07T06:50:41;14.90;76.00
32293;DHT22;43233;48.608;8.838;2023-05-07T06:53:07;14.90;75.00
32293;DHT22;43233;48.608;8.838;2023-05-07T06:55:33;14.90;75.30
32293;DHT22;43233;48.608;8.838;2023-05-07T06:57:58;15.00;75.10
32293;DHT22;43233;48.608;8.838;2023-05-07T07:00:27;15.00;74.50
32293;DHT22;43233;48.608;8.838;2023-05-07T07:02:54;15.20;72.50
32293;DHT22;43233;48.608;8.838;2023-05-07T07:05:20;15.30;72.20
32293;DHT22;43233;48.608;8.838;2023-05-07T07:07:46;15.30;72.00
32293;DHT22;43233;48.608;8.838;2023-05-07T07:10:18;15.30;70.00
32293;DHT22;43233;48.608;8.838;2023-05-07T07:12:44;15.40;69.70
32293;DHT22;43233;48.608;8.838;2023-05-07T07:15:10;15.50;68.90
32293;DHT22;43233;48.608;8.838;2023-05-07T07:17:36;15.60;69.60
32293;DHT22;43233;48.608;8.838;2023-05-07T07:20:02;15.60;68.50
32293;DHT22;43233;48.608;8.838;2023-05-07T07:22:28;15.60;68.40
32293;DHT22;43233;48.608;8.838;2023-05-07T07:24:54;15.60;68.20
32293;DHT22;43233;48.608;8.838;2023-05-07T07:27:20;15.70;68.20
32293;DHT22;43233;48.608;8.838;2023-05-07T07:29:45;15.70;68.20
32293;DHT22;43233;48.608;8.838;2023-05-07T07:32:13;15.80;68.30
32293;DHT22;43233;48.608;8.838;2023-05-07T07:34:39;15.80;68.30
32293;DHT22;43233;48.608;8.838;2023-05-07T07:37:05;15.80;67.70
32293;DHT22;43233;48.608;8.838;2023-05-07T07:39:34;15.80;68.20
32293;DHT22;43233;48.608;8.838;2023-05-07T07:42:03;15.90;69.20
32293;DHT22;43233;48.608;8.838;2023-05-07T07:44:28;16.00;69.50
32293;DHT22;43233;48.608;8.838;2023-05-07T07:46:54;16.10;69.40
32293;DHT22;43233;48.608;8.838;2023-05-07T07:49:20;16.10;68.20
32293;DHT22;43233;48.608;8.838;2023-05-07T07:51:45;16.20;68.00
32293;DHT22;43233;48.608;8.838;2023-05-07T07:54:11;16.30;67.40
32293;DHT22;43233;48.608;8.838;2023-05-07T07:56:37;16.40;67.60
32293;DHT22;43233;48.608;8.838;2023-05-07T07:59:03;16.40;68.00
32293;DHT22;43233;48.608;8.838;2023-05-07T08:01:32;16.50;68.00
32293;DHT22;43233;48.608;8.838;2023-05-07T08:03:58;16.60;67.40
32293;DHT22;43233;48.608;8.838;2023-05-07T08:06:24;16.70;67.30
32293;DHT22;43233;48.608;8.838;2023-05-07T08:08:51;16.90;66.90
32293;DHT22;43233;48.608;8.838;2023-05-07T08:11:17;17.00;66.40
32293;DHT22;43233;48.608;8.838;2023-05-07T08:13:42;17.20;64.90
32293;DHT22;43233;48.608;8.838;2023-05-07T08:16:08;17.30;63.20
32293;DHT22;43233;48.608;8.838;2023-05-07T08:18:34;17.50;62.00
32293;DHT22;43233;48.608;8.838;2023-05-07T08:21:01;17.60;61.20
32293;DHT22;43233;48.608;8.838;2023-05-07T08:23:26;17.70;60.00
32293;DHT22;43233;48.608;8.838;2023-05-07T08:25:52;17.70;59.80
32293;DHT22;43233;48.608;8.838;2023-05-07T08:28:18;17.70;59.60
32293;DHT22;43233;48.608;8.838;2023-05-07T08:30:45;17.60;60.20
32293;DHT22;43233;48.608;8.838;2023-05-07T08:33:10;17.70;60.40
32293;DHT22;43233;48.608;8.838;2023-05-07T08:35:36;17.70;61.40
32293;DHT22;43233;48.608;8.838;2023-05-07T08:38:02;17.80;60.20
32293;DHT22;43233;48.608;8.838;2023-05-07T08:40:28;17.80;60.00
32293;DHT22;43233;48.608;8.838;2023-05-07T08:42:56;17.80;60.10
32293;DHT22;43233;48.608;8.838;2023-05-07T08:45:23;17.90;61.70
32293;DHT22;43233;48.608;8.838;2023-05-07T08:47:52;18.00;58.80
32293;DHT22;43233;48.608;8.838;2023-05-07T08:50:20;18.00;59.20
32293;DHT22;43233;48.608;8.838;2023-05-07T08:52:47;18.00;58.80
32293;DHT22;43233;48.608;8.838;2023-05-07T08:55:13;18.10;58.50
32293;DHT22;43233;48.608;8.838;2023-05-07T08:57:39;18.30;57.50
32293;DHT22;43233;48.608;8.838;2023-05-07T09:00:05;18.20;57.80
32293;DHT22;43233;48.608;8.838;2023-05-07T09:02:34;18.20;57.90
32293;DHT22;43233;48.608;8.838;2023-05-07T09:05:00;18.20;58.70
32293;DHT22;43233;48.608;8.838;2023-05-07T09:07:26;18.30;57.00
32293;DHT22;43233;48.608;8.838;2023-05-07T09:09:52;18.40;57.70
32293;DHT22;43233;48.608;8.838;2023-05-07T09:12:24;18.40;58.40
32293;DHT22;43233;48.608;8.838;2023-05-07T09:14:50;18.60;57.70
32293;DHT22;43233;48.608;8.838;2023-05-07T09:17:16;18.70;57.20
32293;DHT22;43233;48.608;8.838;2023-05-07T09:19:46;18.70;55.80
32293;DHT22;43233;48.608;8.838;2023-05-07T09:22:12;18.80;56.50
32293;DHT22;43233;48.608;8.838;2023-05-07T09:24:38;19.00;57.20
32293;DHT22;43233;48.608;8.838;2023-05-07T09:27:04;19.10;56.60
32293;DHT22;43233;48.608;8.838;2023-05-07T09:29:30;19.20;56.70
32293;DHT22;43233;48.608;8.838;2023-05-07T09:32:06;19.30;56.00
32293;DHT22;43233;48.608;8.838;2023-05-07T09:34:32;19.40;56.10
32293;DHT22;43233;48.608;8.838;2023-05-07T09:37:06;19.50;56.50
32293;DHT22;43233;48.608;8.838;2023-05-07T09:39:44;19.70;55.60
32293;DHT22;43233;48.608;8.838;2023-05-07T09:42:10;19.80;54.60
32293;DHT22;43233;48.608;8.838;2023-05-07T09:44:40;19.90;54.50
32293;DHT22;43233;48.608;8.838;2023-05-07T09:47:07;20.00;53.90
32293;DHT22;43233;48.608;8.838;2023-05-07T09:49:37;20.10;53.30
32293;DHT22;43233;48.608;8.838;2023-05-07T09:52:05;20.20;53.50
32293;DHT22;43233;48.608;8.838;2023-05-07T09:54:33;20.20;53.70
32293;DHT22;43233;48.608;8.838;2023-05-07T09:57:01;20.30;55.00
32293;DHT22;43233;48.608;8.838;2023-05-07T09:59:28;20.50;53.40
32293;DHT22;43233;48.608;8.838;2023-05-07T10:01:57;20.60;50.70
32293;DHT22;43233;48.608;8.838;2023-05-07T10:04:27;20.80;51.60
32293;DHT22;43233;48.608;8.838;2023-05-07T10:06:53;20.80;52.40
32293;DHT22;43233;48.608;8.838;2023-05-07T10:09:20;20.90;51.80
32293;DHT22;43233;48.608;8.838;2023-05-07T10:11:49;21.00;49.60
32293;DHT22;43233;48.608;8.838;2023-05-07T10:14:15;21.10;49.50
32293;DHT22;43233;48.608;8.838;2023-05-07T10:16:41;21.10;50.10
32293;DHT22;43233;48.608;8.838;2023-05-07T10:19:08;21.20;49.50
32293;DHT22;43233;48.608;8.838;2023-05-07T10:21:42;21.40;48.70
32293;DHT22;43233;48.608;8.838;2023-05-07T10:24:13;21.50;49.40
32293;DHT22;43233;48.608;8.838;2023-05-07T10:26:48;21.70;49.30
32293;DHT22;43233;48.608;8.838;2023-05-07T10:29:29;21.80;48.70
32293;DHT22;43233;48.608;8.838;2023-05-07T10:32:26;21.90;48.90
32293;DHT22;43233;48.608;8.838;2023-05-07T10:34:56;22.10;44.30
32293;DHT22;43233;48.608;8.838;2023-05-07T10:37:25;22.30;42.20
32293;DHT22;43233;48.608;8.838;2023-05-07T10:39:52;22.40;42.90
32293;DHT22;43233;48.608;8.838;2023-05-07T10:42:18;22.50;43.50
32293;DHT22;43233;48.608;8.838;2023-05-07T10:44:43;22.50;43.00
32293;DHT22;43233;48.608;8.838;2023-05-07T10:47:14;22.60;40.80
32293;DHT22;43233;48.608;8.838;2023-05-07T10:52:18;22.80;40.20
32293;DHT22;43233;48.608;8.838;2023-05-07T10:54:45;22.80;40.80
32293;DHT22;43233;48.608;8.838;2023-05-07T10:57:36;23.00;41.00
32293;DHT22;43233;48.608;8.838;2023-05-07T11:05:31;23.10;39.60
32293;DHT22;43233;48.608;8.838;2023-05-07T11:08:02;23.10;39.60
32293;DHT22;43233;48.608;8.838;2023-05-07T11:13:16;23.10;38.00
32293;DHT22;43233;48.608;8.838;2023-05-07T11:15:46;23.10;37.90
32293;DHT22;43233;48.608;8.838;2023-05-07T11:18:16;23.00;38.50
32293;DHT22;43233;48.608;8.838;2023-05-07T11:20:49;23.00;37.80
32293;DHT22;43233;48.608;8.838;2023-05-07T11:26:04;22.60;37.30
32293;DHT22;43233;48.608;8.838;2023-05-07T11:28:42;22.50;39.40
32293;DHT22;43233;48.608;8.838;2023-05-07T11:31:08;22.40;40.70
32293;DHT22;43233;48.608;8.838;2023-05-07T11:33:35;22.20;41.00
32293;DHT22;43233;48.608;8.838;2023-05-07T11:36:05;22.00;39.60
32293;DHT22;43233;48.608;8.838;2023-05-07T11:38:37;21.90;39.10
32293;DHT22;43233;48.608;8.838;2023-05-07T11:41:04;21.70;37.60
32293;DHT22;43233;48.608;8.838;2023-05-07T11:43:32;21.60;38.30
32293;DHT22;43233;48.608;8.838;2023-05-07T11:46:06;21.50;40.50
32293;DHT22;43233;48.608;8.838;2023-05-07T11:48:33;21.40;42.00
32293;DHT22;43233;48.608;8.838;2023-05-07T11:53:26;20.50;48.80
32293;DHT22;43233;48.608;8.838;2023-05-07T11:55:58;20.10;49.90
32293;DHT22;43233;48.608;8.838;2023-05-07T11:58:24;19.80;51.20
32293;DHT22;43233;48.608;8.838;2023-05-07T12:00:54;19.60;52.00
32293;DHT22;43233;48.608;8.838;2023-05-07T12:03:22;19.50;54.40
32293;DHT22;43233;48.608;8.838;2023-05-07T12:05:48;19.30;55.30
32293;DHT22;43233;48.608;8.838;2023-05-07T12:08:17;18.90;56.10
32293;DHT22;43233;48.608;8.838;2023-05-07T12:10:44;18.60;57.70
32293;DHT22;43233;48.608;8.838;2023-05-07T12:13:20;18.30;59.70
32293;DHT22;43233;48.608;8.838;2023-05-07T12:15:51;18.20;60.50
32293;DHT22;43233;48.608;8.838;2023-05-07T12:18:17;18.20;60.20
32293;DHT22;43233;48.608;8.838;2023-05-07T12:20:43;18.20;59.10
32293;DHT22;43233;48.608;8.838;2023-05-07T12:23:09;18.20;59.80
32293;DHT22;43233;48.608;8.838;2023-05-07T12:25:37;18.30;60.10
32293;DHT22;43233;48.608;8.838;2023-05-07T12:28:03;18.40;60.90
32293;DHT22;43233;48.608;8.838;2023-05-07T12:30:32;18.50;61.70
32293;DHT22;43233;48.608;8.838;2023-05-07T12:32:58;18.70;60.30
32293;DHT22;43233;48.608;8.838;2023-05-07T12:35:37;18.70;61.00
32293;DHT22;43233;48.608;8.838;2023-05-07T12:38:14;18.60;61.30
32293;DHT22;43233;48.608;8.838;2023-05-07T12:40:45;18.50;59.50
32293;DHT22;43233;48.608;8.838;2023-05-07T12:43:26;18.30;59.10
32293;DHT22;43233;48.608;8.838;2023-05-07T12:45:55;18.20;59.60
32293;DHT22;43233;48.608;8.838;2023-05-07T12:48:21;18.10;62.50
32293;DHT22;43233;48.608;8.838;2023-05-07T12:50:51;18.10;63.40
32293;DHT22;43233;48.608;8.838;2023-05-07T12:53:20;18.20;62.80
32293;DHT22;43233;48.608;8.838;2023-05-07T12:55:49;18.40;63.40
32293;DHT22;43233;48.608;8.838;2023-05-07T12:58:23;18.30;64.20
32293;DHT22;43233;48.608;8.838;2023-05-07T13:00:50;18.10;66.80
32293;DHT22;43233;48.608;8.838;2023-05-07T13:03:27;17.90;69.50
32293;DHT22;43233;48.608;8.838;2023-05-07T13:05:55;17.80;71.50
32293;DHT22;43233;48.608;8.838;2023-05-07T13:08:29;16.90;77.00
32293;DHT22;43233;48.608;8.838;2023-05-07T13:11:00;16.20;82.10
32293;DHT22;43233;48.608;8.838;2023-05-07T13:13:30;15.80;84.20
32293;DHT22;43233;48.608;8.838;2023-05-07T13:15:56;15.70;85.80
32293;DHT22;43233;48.608;8.838;2023-05-07T13:18:23;15.70;86.30
32293;DHT22;43233;48.608;8.838;2023-05-07T13:20:49;15.60;88.10
32293;DHT22;43233;48.608;8.838;2023-05-07T13:23:15;15.40;90.90
32293;DHT22;43233;48.608;8.838;2023-05-07T13:25:40;15.40;92.60
32293;DHT22;43233;48.608;8.838;2023-05-07T13:28:06;15.30;93.50
32293;DHT22;43233;48.608;8.838;2023-05-07T13:30:32;15.20;94.80
32293;DHT22;43233;48.608;8.838;2023-05-07T13:32:58;15.10;94.90
32293;DHT22;43233;48.608;8.838;2023-05-07T13:35:23;15.10;94.90
32293;DHT22;43233;48.608;8.838;2023-05-07T13:37:49;15.20;94.10
32293;DHT22;43233;48.608;8.838;2023-05-07T13:40:15;15.30;90.40
32293;DHT22;43233;48.608;8.838;2023-05-07T13:42:41;15.30;90.60
32293;DHT22;43233;48.608;8.838;2023-05-07T13:45:07;15.30;91.20
32293;DHT22;43233;48.608;8.838;2023-05-07T13:47:34;15.30;93.40
32293;DHT22;43233;48.608;8.838;2023-05-07T13:49:59;15.10;93.80
32293;DHT22;43233;48.608;8.838;2023-05-07T13:52:25;14.90;95.90
32293;DHT22;43233;48.608;8.838;2023-05-07T13:54:51;14.90;95.90
32293;DHT22;43233;48.608;8.838;2023-05-07T13:57:18;14.90;96.20
32293;DHT22;43233;48.608;8.838;2023-05-07T13:59:43;15.00;96.30
32293;DHT22;43233;48.608;8.838;2023-05-07T14:02:09;15.00;94.60
32293;DHT22;43233;48.608;8.838;2023-05-07T14:04:35;15.10;95.70
32293;DHT22;43233;48.608;8.838;2023-05-07T14:07:01;15.10;95.30
32293;DHT22;43233;48.608;8.838;2023-05-07T14:09:26;15.20;94.70
32293;DHT22;43233;48.608;8.838;2023-05-07T14:11:52;15.40;92.80
32293;DHT22;43233;48.608;8.838;2023-05-07T14:14:18;15.50;93.00
32293;DHT22;43233;48.608;8.838;2023-05-07T14:16:44;15.60;92.60
32293;DHT22;43233;48.608;8.838;2023-05-07T14:19:11;15.80;92.60
32293;DHT22;43233;48.608;8.838;2023-05-07T14:21:37;15.90;92.40
32293;DHT22;43233;48.608;8.838;2023-05-07T14:24:02;16.00;92.20
32293;DHT22;43233;48.608;8.838;2023-05-07T14:26:28;16.10;92.00
32293;DHT22;43233;48.608;8.838;2023-05-07T14:28:55;16.20;90.40
32293;DHT22;43233;48.608;8.838;2023-05-07T14:31:22;16.30;89.90
32293;DHT22;43233;48.608;8.838;2023-05-07T14:33:48;16.40;89.60
32293;DHT22;43233;48.608;8.838;2023-05-07T14:36:16;16.50;89.40
32293;DHT22;43233;48.608;8.838;2023-05-07T14:38:42;16.60;88.80
32293;DHT22;43233;48.608;8.838;2023-05-07T14:41:08;16.60;86.30
32293;DHT22;43233;48.608;8.838;2023-05-07T14:43:34;16.60;83.80
32293;DHT22;43233;48.608;8.838;2023-05-07T14:45:59;16.60;78.10
32293;DHT22;43233;48.608;8.838;2023-05-07T14:48:25;16.20;86.40
32293;DHT22;43233;48.608;8.838;2023-05-07T14:50:50;16.10;85.00
32293;DHT22;43233;48.608;8.838;2023-05-07T14:53:16;16.10;84.30
32293;DHT22;43233;48.608;8.838;2023-05-07T14:55:42;16.20;81.70
32293;DHT22;43233;48.608;8.838;2023-05-07T14:58:07;16.10;88.00
32293;DHT22;43233;48.608;8.838;2023-05-07T15:00:33;16.10;89.10
32293;DHT22;43233;48.608;8.838;2023-05-07T15:03:05;16.20;89.60
32293;DHT22;43233;48.608;8.838;2023-05-07T15:05:32;16.30;88.00
32293;DHT22;43233;48.608;8.838;2023-05-07T15:07:58;16.50;87.10
32293;DHT22;43233;48.608;8.838;2023-05-07T15:10:24;16.60;80.40
32293;DHT22;43233;48.608;8.838;2023-05-07T15:12:49;16.70;82.80
32293;DHT22;43233;48.608;8.838;2023-05-07T15:15:15;16.90;84.10
32293;DHT22;43233;48.608;8.838;2023-05-07T15:17:41;16.90;85.10
32293;DHT22;43233;48.608;8.838;2023-05-07T15:20:07;16.80;83.30
32293;DHT22;43233;48.608;8.838;2023-05-07T15:22:33;16.90;83.30
32293;DHT22;43233;48.608;8.838;2023-05-07T15:24:59;17.10;86.90
32293;DHT22;43233;48.608;8.838;2023-05-07T15:27:25;17.20;83.40
32293;DHT22;43233;48.608;8.838;2023-05-07T15:29:51;17.30;84.50
32293;DHT22;43233;48.608;8.838;2023-05-07T15:32:17;17.20;87.70
32293;DHT22;43233;48.608;8.838;2023-05-07T15:34:43;17.20;86.50
32293;DHT22;43233;48.608;8.838;2023-05-07T15:37:08;17.00;83.40
32293;DHT22;43233;48.608;8.838;2023-05-07T15:39:35;16.90;85.50
32293;DHT22;43233;48.608;8.838;2023-05-07T15:42:01;16.80;85.40
32293;DHT22;43233;48.608;8.838;2023-05-07T15:44:26;16.70;84.00